Time;durP1;ratioP1;P1;durP2;ratioP2;P2;SDS_P1;SDS_P2;PMS_P1;PMS_P2;Temp;Humidity;BMP_temperature;BMP_pressure;BME280_temperature;BME280_humidity;BME280_pressure;Samples;Min_cycle;Max_cycle;Signal;HPM_P1;HPM_P2
2021/11/04 00:01:22;;;;;;;25.45;17.63;;;;;;;8.10;75.90;98688.84;5054184;28;20044;-64
2021/11/04 00:03:48;;;;;;;21.13;17.35;;;;;;;8.08;76.06;98669.91;5052048;28;20053;-64
2021/11/04 00:06:22;;;;;;;24.00;18.95;;;;;;;8.08;76.08;98675.97;5053758;28;20033;-64
2021/11/04 00:08:47;;;;;;;23.33;17.70;;;;;;;8.08;75.88;98673.38;5035663;28;20037;-64
2021/11/04 00:11:13;;;;;;;23.23;17.98;;;;;;;8.09;76.12;98674.22;5035502;28;20554;-64
2021/11/04 00:13:44;;;;;;;24.98;18.83;;;;;;;8.08;76.26;98673.38;5052118;28;20043;-64
2021/11/04 00:16:13;;;;;;;21.92;17.73;;;;;;;8.07;76.10;98671.66;5051681;28;20033;-64
2021/11/04 00:18:39;;;;;;;25.52;18.90;;;;;;;8.08;76.02;98669.91;5052062;28;20047;-64
2021/11/04 00:21:05;;;;;;;23.98;19.33;;;;;;;8.08;76.20;98669.91;5035332;28;20033;-64
2021/11/04 00:23:33;;;;;;;23.50;18.20;;;;;;;8.08;75.95;98665.63;5051944;28;20033;-64
2021/11/04 00:26:00;;;;;;;22.48;16.98;;;;;;;8.09;76.01;98663.91;5052481;28;20083;-64
2021/11/04 00:28:27;;;;;;;21.30;17.55;;;;;;;8.08;75.86;98660.47;5053145;28;20037;-64
2021/11/04 00:30:56;;;;;;;24.30;19.20;;;;;;;8.09;75.92;98656.16;5039468;28;20401;-64
2021/11/04 00:33:22;;;;;;;24.02;19.30;;;;;;;8.09;75.86;98666.50;5039424;28;20033;-64
2021/11/04 00:35:53;;;;;;;25.40;20.45;;;;;;;8.10;75.80;98655.31;5056062;28;20044;-64
2021/11/04 00:38:21;;;;;;;28.23;19.50;;;;;;;8.08;76.25;98649.28;5039402;28;20174;-64
2021/11/04 00:40:53;;;;;;;27.35;20.63;;;;;;;8.08;75.78;98647.56;5039991;28;20399;-64
2021/11/04 00:43:19;;;;;;;26.95;20.20;;;;;;;8.08;76.33;98647.56;5039586;28;20033;-64
2021/11/04 00:45:50;;;;;;;24.02;19.77;;;;;;;8.08;76.01;98645.00;5057190;28;20043;-64
2021/11/04 00:48:18;;;;;;;29.48;21.00;;;;;;;8.09;76.00;98645.84;5055944;28;20431;-64
2021/11/04 00:50:46;;;;;;;25.13;20.23;;;;;;;8.08;76.03;98644.13;5055619;28;20118;-64
2021/11/04 00:53:14;;;;;;;27.15;21.10;;;;;;;8.06;76.09;98643.25;5055753;28;20044;-64
2021/11/04 00:55:40;;;;;;;28.77;23.52;;;;;;;8.08;76.09;98646.69;5039662;28;20041;-64
2021/11/04 00:58:09;;;;;;;28.67;22.10;;;;;;;8.06;76.24;98640.66;5055921;28;20048;-64
2021/11/04 01:00:35;;;;;;;27.02;21.25;;;;;;;8.06;75.87;98650.97;5039110;28;20044;-64
2021/11/04 01:03:03;;;;;;;26.48;21.95;;;;;;;8.06;75.89;98656.16;5038891;28;20045;-64
2021/11/04 01:05:31;;;;;;;25.83;20.80;;;;;;;8.07;75.95;98658.75;5055553;28;20091;-64
2021/11/04 01:07:59;;;;;;;30.48;22.65;;;;;;;8.06;76.15;98653.56;5055457;28;20033;-64
2021/11/04 01:10:25;;;;;;;26.00;21.58;;;;;;;8.08;76.01;98659.59;5055637;28;20037;-64
2021/11/04 01:12:51;;;;;;;29.38;21.60;;;;;;;8.08;76.01;98669.91;5056872;28;20037;-64
2021/11/04 01:15:18;;;;;;;31.33;23.13;;;;;;;8.07;75.89;98668.19;5038594;28;20029;-64
2021/11/04 01:17:51;;;;;;;28.08;22.95;;;;;;;8.07;76.11;98673.34;5038793;28;20037;-64
2021/11/04 01:20:17;;;;;;;25.27;20.63;;;;;;;8.07;75.84;98681.97;5054988;28;20506;-64
2021/11/04 01:22:44;;;;;;;27.25;23.50;;;;;;;8.08;76.06;98673.38;5038531;28;20041;-64
2021/11/04 01:25:15;;;;;;;27.27;22.23;;;;;;;8.07;76.57;98670.78;5055470;28;20119;-64
2021/11/04 01:27:43;;;;;;;28.00;21.92;;;;;;;8.06;76.30;98680.25;5056749;28;20124;-64
2021/11/04 01:30:11;;;;;;;28.15;22.80;;;;;;;8.07;76.13;98681.09;5056169;28;20033;-64
2021/11/04 01:32:42;;;;;;;29.95;23.10;;;;;;;8.07;75.93;98694.00;5038824;28;20143;-64
2021/11/04 01:35:08;;;;;;;30.38;24.05;;;;;;;8.06;76.20;98687.13;5038134;28;20111;-64
2021/11/04 01:37:36;;;;;;;31.98;24.55;;;;;;;8.07;76.21;98692.31;5054944;28;20127;-64
2021/11/04 01:40:04;;;;;;;29.98;23.35;;;;;;;8.07;75.80;98697.47;5055380;28;20029;-64
2021/11/04 01:42:29;;;;;;;33.53;25.80;;;;;;;8.07;75.97;98701.75;5038386;28;20114;-64
2021/11/04 01:44:57;;;;;;;29.63;23.80;;;;;;;8.06;75.93;98700.00;5055055;28;20079;-64
2021/11/04 01:47:23;;;;;;;29.70;22.65;;;;;;;8.07;76.05;98704.31;5054293;28;20045;-64
2021/11/04 01:49:52;;;;;;;28.48;22.80;;;;;;;8.06;76.30;98698.31;5054931;28;20499;-64
2021/11/04 01:52:22;;;;;;;31.63;23.75;;;;;;;8.07;76.05;98702.63;5038130;28;20041;-64
2021/11/04 01:54:50;;;;;;;38.22;26.10;;;;;;;8.06;76.08;98703.47;5054416;28;20408;-64
2021/11/04 01:57:18;;;;;;;36.17;24.60;;;;;;;8.06;76.33;98697.44;5055722;28;20041;-64
2021/11/04 01:59:47;;;;;;;40.10;27.17;;;;;;;8.05;76.17;98703.44;5054529;28;20031;-64
2021/11/04 02:02:21;;;;;;;37.75;28.10;;;;;;;8.06;76.33;98702.59;5037564;28;20045;-64
2021/11/04 02:04:58;;;;;;;38.63;26.85;;;;;;;8.07;76.03;98712.06;5037753;28;20048;-64
2021/11/04 02:07:32;;;;;;;41.22;27.05;;;;;;;8.07;76.02;98717.22;5054469;28;20033;-64
2021/11/04 02:10:04;;;;;;;36.70;25.25;;;;;;;8.06;76.30;98710.34;5037715;28;20033;-64
2021/11/04 02:12:35;;;;;;;33.33;25.75;;;;;;;8.05;76.23;98709.50;5055141;28;20064;-64
2021/11/04 02:15:02;;;;;;;38.50;27.13;;;;;;;8.05;76.14;98717.22;5054460;28;20041;-64
2021/11/04 02:17:33;;;;;;;38.30;27.98;;;;;;;8.05;76.07;98717.22;5054138;28;20484;-64
2021/11/04 02:20:03;;;;;;;38.47;26.60;;;;;;;8.06;76.22;98720.66;5037252;28;20040;-64
2021/11/04 02:22:28;;;;;;;35.95;26.33;;;;;;;8.06;76.14;98710.34;5054179;28;20143;-63
2021/11/04 02:25:12;;;;;;;37.85;26.48;;;;;;;8.05;76.07;98709.50;5053858;28;20067;-64
2021/11/04 02:27:41;;;;;;;37.83;25.65;;;;;;;8.05;76.14;98712.06;5037386;28;20476;-64
2021/11/04 02:30:07;;;;;;;42.13;28.70;;;;;;;8.05;76.09;98703.44;5054038;28;20186;-64
2021/11/04 02:32:36;;;;;;;37.92;27.02;;;;;;;8.05;76.25;98706.03;5053704;28;20037;-64
2021/11/04 02:35:03;;;;;;;43.30;28.70;;;;;;;8.05;76.28;98706.03;5054898;28;20051;-64
2021/11/04 02:37:32;;;;;;;39.53;28.63;;;;;;;8.05;76.07;98704.31;5036860;28;20087;-64
2021/11/04 02:39:58;;;;;;;40.38;27.73;;;;;;;8.04;75.96;98699.13;5054078;28;20487;-64
2021/11/04 02:42:27;;;;;;;41.67;28.23;;;;;;;8.05;76.06;98695.72;5037106;28;20488;-64
2021/11/04 02:44:57;;;;;;;41.08;28.73;;;;;;;8.05;76.22;98696.59;5037077;28;20041;-64
2021/11/04 02:47:29;;;;;;;45.03;29.85;;;;;;;8.04;76.21;98704.31;5037217;28;20029;-64
2021/11/04 02:49:55;;;;;;;43.00;31.10;;;;;;;8.03;76.49;98708.63;5037231;28;20052;-64
2021/11/04 02:52:22;;;;;;;39.25;29.35;;;;;;;8.02;76.28;98708.63;5052640;28;20045;-64
2021/11/04 02:54:53;;;;;;;41.55;27.77;;;;;;;8.02;76.29;98719.78;5037480;28;20123;-64
2021/11/04 02:57:20;;;;;;;39.70;30.08;;;;;;;8.01;76.22;98710.31;5036648;28;20518;-64
2021/11/04 02:59:47;;;;;;;40.85;29.13;;;;;;;8.02;76.21;98712.03;5053259;28;20128;-64
2021/11/04 03:02:16;;;;;;;42.05;28.77;;;;;;;8.03;76.15;98715.47;5036440;28;20056;-64
2021/11/04 03:04:41;;;;;;;41.17;28.15;;;;;;;8.01;76.13;98722.38;5053184;28;20128;-64
2021/11/04 03:07:11;;;;;;;38.65;28.05;;;;;;;8.01;76.31;98720.63;5053568;28;20120;-64
2021/11/04 03:09:36;;;;;;;36.95;28.65;;;;;;;8.01;76.07;98723.22;5053320;28;20037;-64
2021/11/04 03:12:03;;;;;;;45.88;29.27;;;;;;;8.01;76.05;98722.38;5053259;28;20040;-64
2021/11/04 03:14:33;;;;;;;36.65;27.52;;;;;;;8.00;76.07;98723.22;5053171;28;20032;-64
2021/11/04 03:17:07;;;;;;;37.00;28.65;;;;;;;8.01;76.39;98722.38;5053166;28;20037;-64
2021/11/04 03:19:36;;;;;;;33.53;25.70;;;;;;;8.00;76.03;98721.50;5053517;28;20064;-64
2021/11/04 03:22:06;;;;;;;39.38;27.48;;;;;;;8.00;76.38;98721.50;5052826;28;20068;-64
2021/11/04 03:24:32;;;;;;;34.60;26.38;;;;;;;7.99;75.98;98712.03;5036469;28;20175;-64
2021/11/04 03:27:02;;;;;;;37.28;26.73;;;;;;;8.00;76.25;98720.66;5036202;28;20396;-64
2021/11/04 03:29:32;;;;;;;37.22;26.20;;;;;;;7.99;76.20;98721.50;5036189;28;20059;-64
2021/11/04 03:32:05;;;;;;;37.90;26.80;;;;;;;8.00;76.36;98723.22;5052537;28;20043;-64
2021/11/04 03:34:35;;;;;;;35.95;25.45;;;;;;;7.98;76.07;98722.34;5053255;28;20033;-64
2021/11/04 03:37:05;;;;;;;34.83;24.17;;;;;;;7.98;76.44;98720.63;5054428;28;20041;-64
2021/11/04 03:39:33;;;;;;;35.30;26.20;;;;;;;7.97;76.45;98715.47;5052727;28;20431;-64
2021/11/04 03:42:02;;;;;;;32.35;25.55;;;;;;;7.96;76.13;98724.06;5035790;28;20041;-64
2021/11/04 03:44:32;;;;;;;36.58;26.05;;;;;;;7.95;76.31;98720.59;5035839;28;20194;-63
2021/11/04 03:47:02;;;;;;;34.97;23.85;;;;;;;7.95;76.05;98715.44;5035865;28;20502;-64
2021/11/04 03:49:34;;;;;;;36.65;25.75;;;;;;;7.96;76.03;98721.47;5052611;28;20051;-64
2021/11/04 03:52:03;;;;;;;37.28;27.02;;;;;;;7.95;76.26;98715.44;5035908;28;20037;-63
2021/11/04 03:54:31;;;;;;;42.42;27.20;;;;;;;7.95;76.23;98720.59;5052338;28;20040;-64
2021/11/04 03:56:57;;;;;;;38.67;25.58;;;;;;;7.93;76.22;98720.59;5035729;28;20131;-64
2021/11/04 03:59:28;;;;;;;37.15;25.85;;;;;;;7.93;76.19;98723.19;5052297;28;20116;-64
2021/11/04 04:01:54;;;;;;;38.55;25.98;;;;;;;7.92;76.38;98730.94;5052380;28;20057;-64
2021/11/04 04:04:23;;;;;;;35.47;25.35;;;;;;;7.93;76.21;98728.34;5052638;28;20044;-64
2021/11/04 04:08:52;;;;;;;39.03;25.00;;;;;;;7.92;76.22;98720.59;5152788;27;20143;-63
2021/11/04 04:11:22;;;;;;;35.90;24.55;;;;;;;7.92;76.20;98718.03;5096569;28;20041;-64
2021/11/04 04:13:50;;;;;;;41.30;26.13;;;;;;;7.91;76.22;98722.31;5131319;27;20525;-64
2021/11/04 04:16:22;;;;;;;38.50;25.23;;;;;;;7.91;76.15;98724.88;5131619;28;20085;-64
2021/11/04 04:18:48;;;;;;;38.42;25.33;;;;;;;7.91;76.27;98721.47;5096548;28;20043;-64
2021/11/04 04:21:14;;;;;;;44.03;26.75;;;;;;;7.91;76.34;98724.88;5113371;28;20067;-64
2021/11/04 04:23:41;;;;;;;38.80;25.05;;;;;;;7.91;76.33;98730.03;5113214;28;20063;-64
2021/11/04 04:26:07;;;;;;;39.53;25.08;;;;;;;7.93;76.24;98728.34;5096108;27;20078;-64
2021/11/04 04:28:33;;;;;;;39.47;25.85;;;;;;;7.92;76.33;98733.50;5096163;28;20382;-65
2021/11/04 04:30:59;;;;;;;41.30;26.52;;;;;;;7.91;76.17;98735.19;5096115;28;20067;-64
2021/11/04 04:33:25;;;;;;;34.50;23.08;;;;;;;7.90;76.25;98732.63;5096741;28;20055;-64
2021/11/04 04:35:55;;;;;;;42.42;24.50;;;;;;;7.90;76.21;98736.06;5096452;28;20443;-65
2021/11/04 04:38:24;;;;;;;37.15;24.05;;;;;;;7.90;76.40;98738.63;5112659;28;20458;-64
2021/11/04 04:40:53;;;;;;;35.95;23.75;;;;;;;7.90;76.09;98736.06;5095699;28;20043;-64
2021/11/04 04:43:21;;;;;;;40.67;23.55;;;;;;;7.87;76.29;98741.19;5095911;28;20126;-63
2021/11/04 04:45:49;;;;;;;40.35;24.98;;;;;;;7.87;76.29;98740.34;5131146;28;20105;-64
2021/11/04 04:48:17;;;;;;;37.33;23.48;;;;;;;7.85;76.18;98744.63;5112227;28;20500;-64
2021/11/04 04:50:43;;;;;;;33.75;22.60;;;;;;;7.87;76.19;98745.50;5113058;28;20047;-64
2021/11/04 04:53:11;;;;;;;36.92;22.90;;;;;;;7.85;76.32;98740.34;5130901;28;20035;-64
2021/11/04 04:55:37;;;;;;;34.13;23.60;;;;;;;7.86;76.22;98744.63;5095897;28;20050;-64
2021/11/04 04:58:06;;;;;;;31.48;21.92;;;;;;;7.86;76.24;98736.03;5112917;28;20039;-64
2021/11/04 05:00:35;;;;;;;34.47;23.65;;;;;;;7.83;75.96;98749.78;5112992;28;20040;-64
2021/11/04 05:03:01;;;;;;;37.28;24.63;;;;;;;7.83;76.00;98762.69;5095768;28;20549;-64
2021/11/04 05:05:31;;;;;;;32.90;21.58;;;;;;;7.84;76.44;98759.25;5130768;28;20127;-63
2021/11/04 05:07:57;;;;;;;31.58;21.40;;;;;;;7.82;76.09;98763.53;5112155;28;20044;-64
2021/11/04 05:10:23;;;;;;;32.63;22.30;;;;;;;7.82;76.39;98762.66;5130734;28;20099;-64
2021/11/04 05:12:48;;;;;;;29.92;20.70;;;;;;;7.84;76.47;98766.13;5130504;28;20027;-65
2021/11/04 05:15:17;;;;;;;26.52;19.27;;;;;;;7.83;76.46;98769.53;5130853;28;20039;-64
2021/11/04 05:17:43;;;;;;;29.33;20.77;;;;;;;7.83;76.46;98765.25;5095543;28;20035;-64
2021/11/04 05:20:09;;;;;;;24.77;19.55;;;;;;;7.84;76.44;98766.13;5098930;28;20039;-64
2021/11/04 05:22:36;;;;;;;27.15;19.40;;;;;;;7.82;76.58;98768.69;5116578;28;20122;-64
2021/11/04 05:25:10;;;;;;;26.45;20.08;;;;;;;7.82;76.01;98773.84;5081546;28;20089;-64
2021/11/04 05:27:47;;;;;;;26.02;19.13;;;;;;;7.82;76.31;98767.81;5081913;28;20027;-64
2021/11/04 05:30:17;;;;;;;28.75;19.38;;;;;;;7.83;76.29;98774.69;5116763;28;20032;-64
2021/11/04 05:32:46;;;;;;;28.23;19.75;;;;;;;7.82;76.22;98771.28;5098888;28;20428;-64
2021/11/04 05:35:14;;;;;;;25.98;18.92;;;;;;;7.83;76.53;98777.28;5081263;28;20035;-64
2021/11/04 05:37:42;;;;;;;26.88;19.50;;;;;;;7.82;76.37;98781.59;5098350;28;20034;-64
2021/11/04 05:40:08;;;;;;;25.75;18.50;;;;;;;7.82;76.06;98781.59;5081287;28;20031;-64
2021/11/04 05:42:37;;;;;;;26.38;19.58;;;;;;;7.82;76.01;98793.59;5098241;28;20040;-64
2021/11/04 05:45:09;;;;;;;23.52;17.23;;;;;;;7.81;76.42;98778.97;5081233;28;20406;-64
2021/11/04 05:47:39;;;;;;;26.35;18.98;;;;;;;7.82;76.22;98781.59;5116523;28;20032;-64
2021/11/04 05:50:05;;;;;;;27.58;19.55;;;;;;;7.80;76.28;98785.88;5082203;28;20122;-64
2021/11/04 05:52:31;;;;;;;27.55;18.63;;;;;;;7.80;76.31;98788.44;5081552;28;20183;-64
2021/11/04 05:54:56;;;;;;;24.55;18.63;;;;;;;7.82;76.19;98793.59;5098086;28;20150;-64
2021/11/04 05:57:26;;;;;;;25.20;17.75;;;;;;;7.81;76.20;98797.91;5098065;28;20038;-64
2021/11/04 05:59:51;;;;;;;26.30;18.10;;;;;;;7.81;76.13;98799.63;5080980;28;20071;-64
2021/11/04 06:02:22;;;;;;;24.48;17.65;;;;;;;7.79;75.77;98802.19;5080773;28;20119;-64
2021/11/04 06:04:48;;;;;;;25.83;17.52;;;;;;;7.80;76.19;98809.09;5098334;28;20036;-64
2021/11/04 06:07:15;;;;;;;25.60;17.00;;;;;;;7.79;76.16;98807.34;5069757;28;20056;-64
2021/11/04 06:09:41;;;;;;;28.55;18.90;;;;;;;7.81;76.28;98822.84;5057543;28;20040;-65
2021/11/04 06:12:07;;;;;;;24.95;16.83;;;;;;;7.80;76.37;98813.38;5057166;28;20127;-64
2021/11/04 06:14:33;;;;;;;23.88;17.40;;;;;;;7.81;76.29;98812.50;5057281;28;20033;-63
2021/11/04 06:16:59;;;;;;;26.48;17.08;;;;;;;7.80;75.96;98818.53;5057433;28;20083;-64
2021/11/04 06:19:24;;;;;;;23.02;16.90;;;;;;;7.80;76.02;98819.41;5057637;28;20032;-64
2021/11/04 06:21:50;;;;;;;24.55;16.00;;;;;;;7.80;76.04;98815.94;5075122;28;20037;-64
2021/11/04 06:24:19;;;;;;;27.23;15.98;;;;;;;7.80;76.15;98826.25;5073742;28;20048;-64
2021/11/04 06:26:48;;;;;;;25.05;16.58;;;;;;;7.80;76.37;98821.97;5075127;28;20033;-64
2021/11/04 06:29:14;;;;;;;25.45;16.65;;;;;;;7.80;76.17;98819.41;5074851;28;20082;-64
2021/11/04 06:31:39;;;;;;;22.73;16.00;;;;;;;7.79;76.27;98825.41;5055923;28;20067;-64
2021/11/04 06:34:06;;;;;;;23.83;15.90;;;;;;;7.80;76.22;98821.09;5074152;28;20086;-64
2021/11/04 06:36:34;;;;;;;22.17;15.70;;;;;;;7.77;76.01;98828.00;5057315;28;20025;-64
2021/11/04 06:39:01;;;;;;;25.48;16.75;;;;;;;7.79;75.94;98830.56;5074365;28;20452;-64
2021/11/04 06:41:27;;;;;;;23.50;15.27;;;;;;;7.78;76.16;98839.16;5073374;28;20043;-64
2021/11/04 06:48:00;;;;;;;21.38;15.15;;;;;;;7.76;76.43;98839.16;5074485;28;20075;-64
2021/11/04 06:50:30;;;;;;;22.58;16.50;;;;;;;7.75;76.11;98837.44;5056349;28;20499;-64
2021/11/04 06:53:05;;;;;;;21.02;16.25;;;;;;;7.75;76.19;98844.28;5056383;28;20037;-64
2021/11/04 06:55:32;;;;;;;26.17;15.93;;;;;;;7.76;76.11;98844.31;5074480;28;20037;-64
2021/11/04 06:58:02;;;;;;;21.52;14.90;;;;;;;7.76;76.18;98840.84;5056457;28;20106;-64
2021/11/04 07:00:34;;;;;;;22.63;15.52;;;;;;;7.75;76.19;98849.44;5056441;28;20028;-64
2021/11/04 07:03:13;;;;;;;20.38;14.73;;;;;;;7.74;76.21;98842.56;5056085;28;20040;-64
2021/11/04 07:05:41;;;;;;;22.38;15.45;;;;;;;7.74;76.14;98848.59;5056810;28;20042;-64
2021/11/04 07:08:23;;;;;;;17.65;14.02;;;;;;;7.74;75.98;98845.13;5090607;28;20050;-64
2021/11/04 07:10:55;;;;;;;20.02;14.65;;;;;;;7.74;76.20;98858.03;5115083;28;20031;-65
2021/11/04 07:13:22;;;;;;;20.92;15.23;;;;;;;7.73;76.22;98859.75;5079365;28;20122;-64
2021/11/04 07:15:49;;;;;;;25.92;15.43;;;;;;;7.74;76.59;98863.19;5114319;28;20038;-64
2021/11/04 07:18:18;;;;;;;22.65;15.18;;;;;;;7.74;76.42;98870.94;5096756;28;20075;-64
2021/11/04 07:20:50;;;;;;;18.58;14.48;;;;;;;7.73;76.49;98870.06;5079670;28;20031;-65
2021/11/04 07:23:27;;;;;;;21.25;14.73;;;;;;;7.73;76.12;98871.78;5079500;28;20042;-65
2021/11/04 07:25:59;;;;;;;18.83;14.85;;;;;;;7.72;75.86;98875.22;5079427;28;20036;-64
2021/11/04 07:28:29;;;;;;;19.02;15.68;;;;;;;7.72;76.28;98875.22;5079708;28;20063;-64
2021/11/04 07:30:55;;;;;;;24.23;14.35;;;;;;;7.72;76.21;98877.78;5114318;28;20036;-64
2021/11/04 07:33:24;;;;;;;20.15;15.57;;;;;;;7.73;76.37;98879.50;5096677;28;20042;-64
2021/11/04 07:35:52;;;;;;;18.30;14.45;;;;;;;7.73;76.09;98890.72;5079175;28;20042;-65
2021/11/04 07:38:18;;;;;;;20.20;14.75;;;;;;;7.73;76.02;98887.25;5114245;28;20035;-64
2021/11/04 07:40:43;;;;;;;19.42;14.68;;;;;;;7.73;76.31;98892.41;5114164;28;20042;-64
2021/11/04 07:43:09;;;;;;;18.75;15.25;;;;;;;7.73;76.13;98887.25;5096345;28;20126;-64
2021/11/04 07:45:35;;;;;;;19.08;13.32;;;;;;;7.73;76.21;98895.88;5096055;28;20042;-64
2021/11/04 07:48:01;;;;;;;23.25;15.13;;;;;;;7.72;76.06;98891.56;5114193;28;20466;-64
2021/11/04 07:50:29;;;;;;;20.85;14.65;;;;;;;7.73;76.05;98900.16;5114019;28;20050;-64
2021/11/04 07:52:56;;;;;;;23.05;15.43;;;;;;;7.74;76.31;98904.47;5079051;28;20028;-64
2021/11/04 07:55:22;;;;;;;20.70;15.15;;;;;;;7.73;76.06;98905.31;5114048;28;20133;-64
2021/11/04 07:57:48;;;;;;;20.65;14.63;;;;;;;7.72;76.26;98904.47;5113970;28;20058;-64
2021/11/04 08:00:19;;;;;;;23.13;15.55;;;;;;;7.73;76.17;98903.59;5095723;28;20063;-64
2021/11/04 08:02:45;;;;;;;19.88;15.90;;;;;;;7.73;76.04;98908.78;5079027;28;20032;-64
2021/11/04 08:05:13;;;;;;;22.00;15.95;;;;;;;7.72;76.21;98908.72;5095966;28;20028;-64
2021/11/04 08:07:40;;;;;;;21.73;16.85;;;;;;;7.72;76.15;98911.31;5113250;28;20143;-65
2021/11/04 08:10:08;;;;;;;20.95;16.55;;;;;;;7.72;76.10;98919.94;5113850;28;20032;-64
2021/11/04 08:12:35;;;;;;;22.98;16.10;;;;;;;7.73;76.20;98910.47;5095538;28;20505;-64
2021/11/04 08:15:03;;;;;;;24.08;15.18;;;;;;;7.73;76.10;98918.19;5078750;28;20032;-64
2021/11/04 08:17:29;;;;;;;24.02;16.58;;;;;;;7.73;76.25;98920.78;5078579;28;20398;-64
2021/11/04 08:19:54;;;;;;;25.85;16.65;;;;;;;7.73;76.05;98918.19;5113359;28;20032;-64
2021/11/04 08:22:20;;;;;;;26.13;18.60;;;;;;;7.71;76.21;98918.19;5095644;28;20570;-64
2021/11/04 08:24:47;;;;;;;25.67;17.67;;;;;;;7.69;76.33;98919.91;5079129;28;20032;-64
2021/11/04 08:27:18;;;;;;;28.00;17.05;;;;;;;7.69;76.08;98916.47;5078557;28;20040;-64
2021/11/04 08:29:44;;;;;;;24.38;16.08;;;;;;;7.70;75.71;98919.06;5113909;28;20074;-64
2021/11/04 08:32:11;;;;;;;30.10;19.02;;;;;;;7.69;76.19;98930.22;5095489;28;20488;-64
2021/11/04 08:34:38;;;;;;;30.92;19.27;;;;;;;7.69;76.18;98919.91;5095443;28;20044;-64
2021/11/04 08:37:06;;;;;;;26.83;18.35;;;;;;;7.69;76.34;98924.22;5113586;28;20089;-65
2021/11/04 08:39:32;;;;;;;29.33;18.20;;;;;;;7.71;76.17;98930.22;5078637;28;20067;-65
2021/11/04 08:41:58;;;;;;;29.65;19.10;;;;;;;7.70;76.28;98938.84;5078726;28;20039;-65
2021/11/04 08:44:24;;;;;;;25.02;16.70;;;;;;;7.71;76.37;98930.22;5113475;28;20034;-65
2021/11/04 08:46:50;;;;;;;29.17;19.20;;;;;;;7.70;76.63;98933.66;5113484;28;20035;-65
2021/11/04 08:49:16;;;;;;;30.73;18.80;;;;;;;7.69;76.36;98935.38;5095338;28;20032;-65
2021/11/04 08:51:42;;;;;;;33.38;20.27;;;;;;;7.71;76.21;98941.41;5113426;28;20094;-65
2021/11/04 08:54:08;;;;;;;31.92;19.48;;;;;;;7.72;76.13;98950.00;5080092;28;20408;-65
2021/11/04 08:56:38;;;;;;;30.15;19.48;;;;;;;7.72;76.24;98956.03;5099103;28;20047;-65
2021/11/04 08:59:04;;;;;;;29.90;18.20;;;;;;;7.71;76.07;98959.47;5082012;28;20114;-65
2021/11/04 09:01:31;;;;;;;31.88;19.73;;;;;;;7.71;76.28;98959.47;5082123;28;20463;-65
2021/11/04 09:03:57;;;;;;;35.70;20.17;;;;;;;7.71;76.38;98964.63;5081826;28;20054;-65
2021/11/04 09:06:23;;;;;;;31.48;19.77;;;;;;;7.72;76.52;98965.47;5081722;28;20035;-64
2021/11/04 09:08:48;;;;;;;31.92;20.08;;;;;;;7.71;76.17;98969.78;5099448;28;20035;-65
2021/11/04 09:11:14;;;;;;;32.50;17.83;;;;;;;7.72;76.41;98968.06;5116938;28;20035;-65
2021/11/04 09:13:39;;;;;;;32.25;18.95;;;;;;;7.74;76.25;98979.25;5098644;28;20031;-65
2021/11/04 09:16:05;;;;;;;32.10;19.80;;;;;;;7.73;76.25;98974.94;5099040;28;20513;-64
2021/11/04 09:18:32;;;;;;;30.55;19.05;;;;;;;7.74;76.53;98977.56;5098770;28;20039;-65
2021/11/04 09:20:57;;;;;;;34.05;20.20;;;;;;;7.73;76.30;98980.09;5098589;28;20036;-63
2021/11/04 09:23:23;;;;;;;31.42;20.08;;;;;;;7.75;76.10;98981.00;5098508;28;20039;-63
2021/11/04 09:25:48;;;;;;;31.88;19.70;;;;;;;7.75;76.42;98988.72;5117109;28;20035;-63
2021/11/04 09:28:14;;;;;;;32.08;18.75;;;;;;;7.75;76.30;98981.88;5116630;28;20433;-63
2021/11/04 09:30:41;;;;;;;28.45;18.05;;;;;;;7.76;76.08;98991.34;5098999;28;20044;-63
2021/11/04 09:33:07;;;;;;;33.10;19.85;;;;;;;7.75;76.48;98992.19;5116534;28;20047;-63
2021/11/04 09:35:36;;;;;;;32.17;17.63;;;;;;;7.77;76.48;98989.63;5098287;28;20027;-63
2021/11/04 09:38:05;;;;;;;31.40;19.02;;;;;;;7.77;76.09;98987.03;5098695;28;20088;-63
2021/11/04 09:40:31;;;;;;;37.03;20.80;;;;;;;7.78;76.11;98981.88;5082120;28;20032;-63
2021/11/04 09:42:57;;;;;;;36.78;19.58;;;;;;;7.78;76.26;98987.03;5116477;28;20039;-63
2021/11/04 09:45:27;;;;;;;34.75;20.60;;;;;;;7.78;76.53;98991.34;5098150;28;20074;-63
2021/11/04 09:47:56;;;;;;;39.33;21.23;;;;;;;7.79;76.47;98993.06;5081329;28;20071;-64
2021/11/04 09:50:22;;;;;;;34.53;20.80;;;;;;;7.77;76.41;98987.91;5080851;28;20070;-64
2021/11/04 09:52:54;;;;;;;38.70;22.33;;;;;;;7.78;76.27;98992.19;5116709;28;20123;-64
2021/11/04 09:55:25;;;;;;;43.13;22.30;;;;;;;7.80;76.37;98999.97;5081204;28;20092;-65
2021/11/04 09:57:54;;;;;;;44.70;24.27;;;;;;;7.80;76.53;99002.56;5097945;28;20127;-64
2021/11/04 10:00:22;;;;;;;44.60;26.40;;;;;;;7.80;76.54;99009.41;5116295;28;20039;-65
2021/11/04 10:03:09;;;;;;;50.45;25.60;;;;;;;7.78;76.41;99012.84;5097618;28;20078;-65
2021/11/04 10:05:47;;;;;;;46.83;27.17;;;;;;;7.77;76.11;99012.81;5081303;28;20085;-64
2021/11/04 10:08:35;;;;;;;44.63;26.17;;;;;;;7.78;76.59;99018.00;5097452;28;20054;-63
2021/11/04 10:11:11;;;;;;;41.60;24.38;;;;;;;7.77;76.33;99034.34;5115764;28;20059;-65
2021/11/04 10:13:40;;;;;;;46.60;25.58;;;;;;;7.77;76.39;99026.59;5081252;28;20076;-64
2021/11/04 10:16:07;;;;;;;46.88;26.65;;;;;;;7.77;76.60;99031.75;5080555;28;20503;-64
2021/11/04 10:18:50;;;;;;;47.80;27.38;;;;;;;7.74;76.50;99036.00;5097518;28;20035;-64
2021/11/04 10:21:23;;;;;;;45.77;26.20;;;;;;;7.75;76.36;99038.63;5097758;28;20039;-65
2021/11/04 10:23:49;;;;;;;42.65;27.40;;;;;;;7.74;76.48;99038.59;5080510;28;20067;-65
2021/11/04 10:26:17;;;;;;;45.63;26.95;;;;;;;7.75;76.53;99037.72;5097278;28;20066;-65
2021/11/04 10:28:45;;;;;;;45.88;27.27;;;;;;;7.75;76.56;99042.91;5080595;28;20043;-64
2021/11/04 10:31:17;;;;;;;47.00;25.50;;;;;;;7.74;76.65;99036.88;5080391;28;20031;-63
2021/11/04 10:33:44;;;;;;;48.97;26.50;;;;;;;7.73;76.75;99029.09;5097243;28;20053;-63
2021/11/04 10:36:10;;;;;;;47.00;25.15;;;;;;;7.72;76.64;99035.13;5080226;28;20479;-64
2021/11/04 10:38:39;;;;;;;43.50;26.25;;;;;;;7.73;76.47;99034.28;5097484;28;20044;-64
2021/11/04 10:41:24;;;;;;;44.30;26.92;;;;;;;7.72;76.58;99032.53;5097054;28;20498;-64
2021/11/04 10:43:52;;;;;;;47.88;26.63;;;;;;;7.73;76.83;99034.28;5080198;28;20085;-65
2021/11/04 10:46:18;;;;;;;47.80;26.33;;;;;;;7.73;76.65;99029.09;5079865;28;20031;-65
2021/11/04 10:48:46;;;;;;;46.97;25.60;;;;;;;7.74;76.55;99038.59;5079938;28;20031;-65
2021/11/04 10:51:16;;;;;;;44.22;24.00;;;;;;;7.73;76.80;99034.28;5096693;28;20045;-65
2021/11/04 10:53:42;;;;;;;47.40;26.17;;;;;;;7.72;76.76;99033.41;5079958;28;20163;-64
2021/11/04 10:56:16;;;;;;;47.83;24.92;;;;;;;7.73;76.67;99034.28;5079924;28;20571;-63
2021/11/04 10:58:43;;;;;;;46.22;25.52;;;;;;;7.73;76.43;99039.44;5079666;28;20057;-64
2021/11/04 11:01:24;;;;;;;49.92;25.58;;;;;;;7.73;76.65;99040.31;5079920;28;20119;-64
2021/11/04 11:03:54;;;;;;;48.97;25.08;;;;;;;7.74;76.87;99047.19;5080426;28;20036;-63
2021/11/04 11:06:23;;;;;;;43.40;23.70;;;;;;;7.75;76.79;99051.50;5079950;28;20050;-63
2021/11/04 11:08:49;;;;;;;45.75;24.52;;;;;;;7.73;76.70;99050.63;5096479;28;20035;-64
2021/11/04 11:11:17;;;;;;;49.47;25.02;;;;;;;7.74;76.63;99054.06;5114604;28;20028;-63
2021/11/04 11:13:46;;;;;;;42.08;23.17;;;;;;;7.74;76.91;99052.34;5079650;28;20402;-65
2021/11/04 11:16:14;;;;;;;44.33;23.73;;;;;;;7.75;76.37;99055.78;5096145;28;20032;-65
2021/11/04 11:18:40;;;;;;;44.83;23.80;;;;;;;7.75;76.57;99051.50;5079661;28;20044;-65
2021/11/04 11:21:05;;;;;;;43.35;22.38;;;;;;;7.75;76.64;99061.84;5096229;28;20445;-65
2021/11/04 11:23:31;;;;;;;37.25;21.60;;;;;;;7.75;76.84;99060.94;5096047;28;20042;-64
2021/11/04 11:26:01;;;;;;;40.28;23.30;;;;;;;7.75;76.78;99061.84;5096415;28;20031;-65
2021/11/04 11:28:34;;;;;;;39.47;22.40;;;;;;;7.77;77.04;99067.00;5078758;28;20035;-65
2021/11/04 11:31:09;;;;;;;37.83;21.55;;;;;;;7.77;76.44;99082.47;5095959;28;20031;-65
2021/11/04 11:33:48;;;;;;;34.42;18.50;;;;;;;7.77;76.87;99082.47;5096155;28;20065;-65
2021/11/04 11:36:20;;;;;;;32.92;19.02;;;;;;;7.76;76.68;99078.16;5095818;28;20032;-65